Terminal Aerodrome Forecast
Issued by NWS Sioux Falls, SD

Home | Current Version | Previous Version | Graphics & Text | Print | Product List | Glossary Off
Versions: 1 2 3 4 5 6 7 8 9 10 11 12 13

924
FTUS43 KFSD 051205 RRA
TAFHON
TAF
KHON 051205Z 0512/0612 15011KT P6SM OVC150
     FM051400 19008KT P6SM OVC150
     FM051700 26013G21KT P6SM BKN110
     FM052200 30019G29KT P6SM BKN030
     FM060900 30019G29KT P6SM BKN035=

USA.gov is the U.S. government's official web portal to all federal, state and local government web resources and services.